createdAt,value
2019-05-25T00:03:08.908Z,25.30
2019-05-25T00:07:39.908Z,25.80
2019-05-25T00:12:12.182Z,26.47
2019-05-25T00:16:43.187Z,21.97
2019-05-25T00:21:15.996Z,26.27
2019-05-25T00:25:46.963Z,22.20
2019-05-25T00:30:20.358Z,22.03
2019-05-25T00:34:53.338Z,22.97
2019-05-25T00:39:28.000Z,26.73
2019-05-25T00:43:59.643Z,25.37
2019-05-25T00:48:32.361Z,27.90
2019-05-25T00:53:04.428Z,26.83
2019-05-25T00:57:36.063Z,24.90
2019-05-25T01:02:09.996Z,24.07
2019-05-25T01:06:41.156Z,23.70
2019-05-25T01:11:14.226Z,27.23
2019-05-25T01:15:45.245Z,26.20
2019-05-25T01:20:15.632Z,21.73
2019-05-25T01:24:47.743Z,24.53
2019-05-25T01:29:21.516Z,27.33
2019-05-25T01:33:52.661Z,31.40
2019-05-25T01:38:27.421Z,32.40
2019-05-25T01:43:00.202Z,29.33
2019-05-25T01:47:32.211Z,28.30
2019-05-25T01:52:04.601Z,26.80
2019-05-25T01:56:35.764Z,24.83
2019-05-25T02:01:06.603Z,30.13
2019-05-25T02:05:38.057Z,27.70
2019-05-25T02:10:10.201Z,28.87
2019-05-25T02:14:41.013Z,29.97
2019-05-25T02:19:13.137Z,27.97
2019-05-25T02:23:45.244Z,26.77
2019-05-25T02:28:16.805Z,30.80
2019-05-25T02:32:50.184Z,33.20
2019-05-25T02:37:22.060Z,30.60
2019-05-25T02:41:53.796Z,32.73
2019-05-25T02:46:30.864Z,38.67
2019-05-25T02:51:01.950Z,30.97
2019-05-25T02:55:37.589Z,34.70
2019-05-25T03:00:09.332Z,35.43
2019-05-25T03:04:41.068Z,35.93
2019-05-25T03:09:13.831Z,44.73
2019-05-25T03:13:47.507Z,47.67
2019-05-25T03:18:19.437Z,43.87
2019-05-25T03:27:36.751Z,43.27
2019-05-25T03:32:10.003Z,48.43
2019-05-25T03:36:43.893Z,41.97
2019-05-25T03:41:13.895Z,44.27
2019-05-25T03:46:05.694Z,43.03
2019-05-25T03:50:36.490Z,43.40
2019-05-25T03:55:08.990Z,40.53
2019-05-25T03:59:39.872Z,35.77
2019-05-25T04:04:12.558Z,37.77
2019-05-25T04:08:45.631Z,36.37
2019-05-25T04:13:16.933Z,41.90
2019-05-25T04:17:51.019Z,32.07
2019-05-25T04:22:21.440Z,34.13
2019-05-25T04:26:52.454Z,33.93
2019-05-25T04:31:24.944Z,33.27
2019-05-25T04:35:55.742Z,35.50
2019-05-25T04:40:27.156Z,32.50
2019-05-25T04:45:00.995Z,37.67
2019-05-25T04:49:36.257Z,37.73
2019-05-25T04:54:07.904Z,30.77
2019-05-25T04:58:39.411Z,30.97
2019-05-25T05:03:12.895Z,30.80
2019-05-25T05:07:45.257Z,26.57
2019-05-25T05:12:16.463Z,29.43
2019-05-25T05:17:11.122Z,28.33
2019-05-25T05:21:41.535Z,24.23
2019-05-25T05:26:14.552Z,24.90
2019-05-25T05:30:46.221Z,26.80
2019-05-25T05:35:19.901Z,24.83
2019-05-25T05:39:53.901Z,25.13
2019-05-25T05:44:47.797Z,25.77
2019-05-25T05:49:24.083Z,21.20
2019-05-25T05:53:57.022Z,25.00
2019-05-25T05:58:29.621Z,19.90
2019-05-25T06:02:59.830Z,19.10
2019-05-25T06:07:30.235Z,20.47
2019-05-25T06:12:02.186Z,21.23
2019-05-25T06:16:34.185Z,16.37
2019-05-25T06:21:05.356Z,19.03
2019-05-25T06:25:36.153Z,21.33
2019-05-25T06:30:09.142Z,20.83
2019-05-25T06:34:40.682Z,19.90
2019-05-25T06:39:12.150Z,25.60
2019-05-25T06:43:45.766Z,20.57
2019-05-25T06:48:18.599Z,20.93
2019-05-25T06:52:49.551Z,23.23
2019-05-25T07:01:56.483Z,23.77
2019-05-25T07:06:47.706Z,20.73
2019-05-25T07:11:13.806Z,17.47
2019-05-25T07:15:44.656Z,15.53
2019-05-25T07:20:17.396Z,15.03
2019-05-25T07:24:49.574Z,12.93
2019-05-25T07:29:24.196Z,15.80
2019-05-25T07:33:54.895Z,18.93
2019-05-25T07:38:26.157Z,19.73
2019-05-25T07:42:59.603Z,25.43
2019-05-25T07:47:32.924Z,10.53
2019-05-25T07:52:05.470Z,16.10
2019-05-25T07:56:39.230Z,7.83
2019-05-25T08:01:12.763Z,10.57
2019-05-25T08:05:45.108Z,8.97
2019-05-25T08:10:16.713Z,10.50
2019-05-25T08:14:52.357Z,9.80
2019-05-25T08:19:26.651Z,12.50
2019-05-25T08:23:57.436Z,14.67
2019-05-25T08:28:33.069Z,10.10
2019-05-25T08:33:05.666Z,10.37
2019-05-25T08:37:55.909Z,7.30
2019-05-25T08:42:25.357Z,7.03
2019-05-25T08:46:57.172Z,9.67
2019-05-25T08:51:34.641Z,10.77
2019-05-25T08:56:06.183Z,10.50
2019-05-25T09:00:37.879Z,9.87
2019-05-25T09:05:09.565Z,15.03
2019-05-25T09:09:44.173Z,12.27
2019-05-25T09:14:13.975Z,10.53
2019-05-25T09:18:45.102Z,6.87
2019-05-25T09:23:16.656Z,8.83
2019-05-25T09:27:49.022Z,11.40
2019-05-25T09:32:22.251Z,9.60
2019-05-25T09:36:54.364Z,10.73
2019-05-25T09:41:47.625Z,7.50
2019-05-25T09:46:20.630Z,5.60
2019-05-25T09:50:52.915Z,10.50
2019-05-25T09:55:28.117Z,11.43
2019-05-25T10:00:00.460Z,6.07
2019-05-25T10:04:36.649Z,8.80
2019-05-25T10:09:08.444Z,7.87
2019-05-25T10:13:41.004Z,8.43
2019-05-25T10:18:15.357Z,12.43
2019-05-25T10:22:47.334Z,10.03
2019-05-25T10:27:20.449Z,7.13
2019-05-25T10:31:53.039Z,13.50
2019-05-25T10:36:25.447Z,9.37
2019-05-25T10:40:58.580Z,15.43
2019-05-25T10:45:33.988Z,11.83
2019-05-25T10:50:06.077Z,9.77
2019-05-25T10:54:39.150Z,11.13
2019-05-25T10:59:12.842Z,8.50
2019-05-25T11:03:44.982Z,7.50
2019-05-25T11:08:17.224Z,6.10
2019-05-25T11:12:52.918Z,10.97
2019-05-25T11:17:25.557Z,6.77
2019-05-25T11:21:58.618Z,9.13
2019-05-25T11:26:30.608Z,7.73
2019-05-25T11:31:02.002Z,13.40
2019-05-25T11:35:34.588Z,7.47
2019-05-25T11:40:05.436Z,17.27
2019-05-25T11:44:37.555Z,7.23
2019-05-25T11:49:22.051Z,20.40
2019-05-25T11:58:47.476Z,8.83
2019-05-25T12:03:14.251Z,5.13
2019-05-25T12:07:46.983Z,8.90
2019-05-25T12:12:17.635Z,10.33
2019-05-25T12:16:50.543Z,11.30
2019-05-25T12:21:22.475Z,10.37
2019-05-25T12:25:57.824Z,7.70
2019-05-25T12:30:40.387Z,5.67
2019-05-25T12:35:04.970Z,10.13
2019-05-25T12:39:37.153Z,8.43
2019-05-25T12:48:39.718Z,8.93
2019-05-25T12:53:30.452Z,9.13
2019-05-25T12:58:02.647Z,10.67
2019-05-25T13:02:34.296Z,9.60
2019-05-25T13:07:05.842Z,13.03
2019-05-25T13:11:37.914Z,12.47
2019-05-25T13:16:10.657Z,10.60
2019-05-25T13:20:41.231Z,14.97
2019-05-25T13:25:13.751Z,8.13
2019-05-25T13:29:45.105Z,12.47
2019-05-25T13:34:17.925Z,12.27
2019-05-25T13:38:53.024Z,11.50
2019-05-25T13:43:24.280Z,10.07
2019-05-25T13:47:58.272Z,15.03
2019-05-25T13:52:30.381Z,18.77
2019-05-25T13:57:02.344Z,19.37
2019-05-25T14:01:35.395Z,12.67
2019-05-25T14:06:10.327Z,16.20
2019-05-25T14:10:45.223Z,14.43
2019-05-25T14:15:17.707Z,14.60
2019-05-25T14:19:52.851Z,19.47
2019-05-25T14:24:24.333Z,17.03
2019-05-25T14:28:57.287Z,14.03
2019-05-25T14:33:30.040Z,20.80
2019-05-25T14:38:03.583Z,17.10
2019-05-25T14:42:35.373Z,17.50
2019-05-25T14:47:05.571Z,18.40
2019-05-25T14:51:39.279Z,14.03
2019-05-25T14:56:11.792Z,17.17
2019-05-25T15:00:46.387Z,10.07
2019-05-25T15:05:25.335Z,10.07
2019-05-25T15:09:56.731Z,13.07
2019-05-25T15:14:30.561Z,13.80
2019-05-25T15:19:05.083Z,7.13
2019-05-25T15:23:55.253Z,10.60
2019-05-25T15:28:26.477Z,7.60
2019-05-25T15:32:59.781Z,7.30
2019-05-25T15:37:30.551Z,8.03
2019-05-25T15:42:03.691Z,11.73
2019-05-25T15:46:36.347Z,6.90
2019-05-25T15:51:09.771Z,5.87
2019-05-25T15:55:43.351Z,7.00
2019-05-25T16:00:15.277Z,9.60
2019-05-25T16:04:47.296Z,6.70
2019-05-25T16:09:19.979Z,6.63
2019-05-25T16:13:52.287Z,3.90
2019-05-25T16:18:25.114Z,5.30
2019-05-25T16:23:15.673Z,10.17
2019-05-25T16:28:07.797Z,8.53
2019-05-25T16:33:10.079Z,6.33
2019-05-25T16:37:15.920Z,8.90
2019-05-25T16:41:50.926Z,4.93
2019-05-25T16:46:23.117Z,9.37
2019-05-25T16:50:56.448Z,4.90
2019-05-25T16:55:47.295Z,6.60
2019-05-25T17:00:20.463Z,9.10
2019-05-25T17:04:56.480Z,13.70
2019-05-25T17:09:28.757Z,6.57
2019-05-25T17:14:03.364Z,9.57
2019-05-25T17:18:36.207Z,10.63
2019-05-25T17:23:07.639Z,4.53
2019-05-25T17:27:42.153Z,6.57
2019-05-25T17:37:05.220Z,7.00
2019-05-25T17:42:04.553Z,9.30
2019-05-25T17:46:36.667Z,4.93
2019-05-25T17:51:10.260Z,10.67
2019-05-25T17:55:41.490Z,7.53
2019-05-25T18:00:12.525Z,13.33
2019-05-25T18:04:45.957Z,12.03
2019-05-25T18:09:19.638Z,4.60
2019-05-25T18:14:10.704Z,17.43
2019-05-25T18:18:41.951Z,7.87
2019-05-25T18:23:12.995Z,5.73
2019-05-25T18:27:45.382Z,6.60
2019-05-25T18:32:17.049Z,8.53
2019-05-25T18:36:51.437Z,9.33
2019-05-25T18:45:55.502Z,8.77
2019-05-25T18:50:28.055Z,9.80
2019-05-25T18:55:10.378Z,11.03
2019-05-25T18:59:45.677Z,3.80
2019-05-25T19:04:19.132Z,10.83
2019-05-25T19:08:50.522Z,7.37
2019-05-25T19:13:24.086Z,8.43
2019-05-25T19:17:55.645Z,9.40
2019-05-25T19:22:47.199Z,4.53
2019-05-25T19:27:19.022Z,7.67
2019-05-25T19:31:49.544Z,9.17
2019-05-25T19:36:21.012Z,8.57
2019-05-25T19:40:54.335Z,8.63
2019-05-25T19:45:28.593Z,14.00
2019-05-25T19:50:05.109Z,12.37
2019-05-25T19:54:53.034Z,9.17
2019-05-25T20:09:17.224Z,11.27
2019-05-25T20:13:48.576Z,13.73
2019-05-25T20:18:20.161Z,10.50
2019-05-25T20:22:54.717Z,12.40
2019-05-25T20:27:27.061Z,9.63
2019-05-25T20:32:00.305Z,11.30
2019-05-25T20:36:30.609Z,17.10
2019-05-25T20:41:21.777Z,12.93
2019-05-25T20:45:53.565Z,9.53
2019-05-25T20:50:28.585Z,12.93
2019-05-25T20:55:00.650Z,63.20
2019-05-25T20:59:33.427Z,168.13
2019-05-25T21:04:08.108Z,19.77
2019-05-25T21:08:40.238Z,13.33
2019-05-25T21:13:19.309Z,11.60
2019-05-25T21:17:56.467Z,10.57
2019-05-25T21:22:35.695Z,18.50
2019-05-25T21:27:46.061Z,18.43
2019-05-25T21:32:18.945Z,13.23
2019-05-25T21:36:50.713Z,14.83
2019-05-25T21:41:21.718Z,10.67
2019-05-25T21:45:54.670Z,16.27
2019-05-25T21:50:27.463Z,13.20
2019-05-25T21:54:59.491Z,13.13
2019-05-25T21:59:53.103Z,10.63
2019-05-25T22:04:26.896Z,15.07
2019-05-25T22:08:59.383Z,17.83
2019-05-25T22:13:31.493Z,12.53
2019-05-25T22:18:02.439Z,12.50
2019-05-25T22:22:33.357Z,10.77
2019-05-25T22:27:09.692Z,18.63
2019-05-25T22:36:07.429Z,12.00
2019-05-25T22:40:41.387Z,12.10
2019-05-25T22:45:13.103Z,14.47
2019-05-25T22:49:45.204Z,16.37
2019-05-25T22:54:20.112Z,16.40
2019-05-25T22:58:53.119Z,13.63
2019-05-25T23:03:25.657Z,15.77
2019-05-25T23:07:58.221Z,16.13
2019-05-25T23:12:31.580Z,18.53
2019-05-25T23:17:02.382Z,22.33
2019-05-25T23:21:35.569Z,22.23
2019-05-25T23:26:07.237Z,22.50
2019-05-25T23:30:50.611Z,26.67
2019-05-25T23:35:22.489Z,24.33
2019-05-25T23:39:56.053Z,18.90
2019-05-25T23:44:46.982Z,18.03
2019-05-25T23:49:19.946Z,24.90
2019-05-25T23:53:52.134Z,22.47
2019-05-25T23:58:22.825Z,23.37
